Gambrill, Iowa
Current Conditions -  °F | °C
As of 9:52 AM on Sunday 21 Dec 2014 (Local Time) from KDVN Reporting Station
Overcast Overcast  
Wind Chill: 29°   Ceiling: 2800
Heat Index: 38°   Visibility: 9mi
Dew Point: 32°   Wind: 16mph
Humidity: 79%   Direction: 180°S
Pressure: 30.1"   Gusts: NA
Location:  41.7317°N, 90.5411°W
Report Text: KDVN 211552Z AUTO 18014KT 9SM OVC028 03/00 A3010 RMK AO2 SLP201 T00330000
Loading
Personal Weather Stations






























Interactive Weather Map New forecast layout! Learn more

10-Day Weather Forecast

Advertisements
Track Severe Weather on mobile